HBGRJ LFBU-LSZR
Flight info
| Callsign | HBGRJ |
|---|---|
| Flight time | 1h 42m |
| Altitude | 21000 |
| Route | LMG DCT ENUPA DCT LUSAR DCT ROLSA |
| Aircraft | B58T/L-SBDFGRY/C |
Departure
| Time | 2026-04-25 15:52 |
|---|---|
| Airport | Angoulême Brie-Champniers airport (LFBU) |
Arrival
| Time | 2026-04-25 17:34 |
|---|---|
| Airport | Sankt Gallen Altenrhein Airport (LSZR) |
| Time | Latitude | Longitude | Altitude | Speed | Heading |
|---|---|---|---|---|---|
| 2026-04-25 15:36 | 45.72733 | 0.21962 | 175 ft | 0 kts | 98° |
| 2026-04-25 15:48 | 45.72733 | 0.21965 | 422 ft | 2 kts | 98° |
| 2026-04-25 15:48 | 45.72754 | 0.21996 | 420 ft | 6 kts | 345° |
| 2026-04-25 15:48 | 45.72768 | 0.21926 | 422 ft | 10 kts | 269° |
| 2026-04-25 15:49 | 45.72739 | 0.21830 | 419 ft | 11 kts | 262° |
| 2026-04-25 15:49 | 45.72748 | 0.21716 | 424 ft | 12 kts | 277° |
| 2026-04-25 15:49 | 45.72758 | 0.21595 | 425 ft | 13 kts | 277° |
| 2026-04-25 15:49 | 45.72770 | 0.21471 | 427 ft | 12 kts | 279° |
| 2026-04-25 15:50 | 45.72816 | 0.21422 | 428 ft | 8 kts | 3° |
| 2026-04-25 15:50 | 45.72871 | 0.21424 | 427 ft | 7 kts | 359° |
| 2026-04-25 15:50 | 45.72925 | 0.21431 | 427 ft | 8 kts | 5° |
| 2026-04-25 15:50 | 45.72976 | 0.21442 | 427 ft | 7 kts | 31° |
| 2026-04-25 15:51 | 45.72984 | 0.21486 | 427 ft | 0 kts | 98° |
| 2026-04-25 15:51 | 45.72955 | 0.21825 | 425 ft | 81 kts | 97° |
| 2026-04-25 15:52 | 45.72861 | 0.22885 | 560 ft | 124 kts | 99° |
| 2026-04-25 15:52 | 45.72749 | 0.24187 | 951 ft | 137 kts | 97° |
| 2026-04-25 15:52 | 45.72556 | 0.25501 | 1474 ft | 133 kts | 114° |
| 2026-04-25 15:52 | 45.72174 | 0.26670 | 1976 ft | 125 kts | 114° |
| 2026-04-25 15:53 | 45.71867 | 0.27796 | 2462 ft | 117 kts | 111° |
| 2026-04-25 15:53 | 45.71586 | 0.28874 | 2896 ft | 117 kts | 111° |
| 2026-04-25 15:53 | 45.71301 | 0.29997 | 3266 ft | 121 kts | 110° |
| 2026-04-25 15:53 | 45.71011 | 0.31141 | 3641 ft | 123 kts | 110° |
| 2026-04-25 15:54 | 45.70721 | 0.32300 | 4014 ft | 124 kts | 110° |
| 2026-04-25 15:54 | 45.70501 | 0.33483 | 4388 ft | 126 kts | 88° |
| 2026-04-25 15:54 | 45.70599 | 0.34743 | 4783 ft | 127 kts | 85° |
| 2026-04-25 15:54 | 45.70668 | 0.36007 | 5157 ft | 127 kts | 82° |
| 2026-04-25 15:55 | 45.71021 | 0.37159 | 5518 ft | 130 kts | 61° |
| 2026-04-25 15:55 | 45.71430 | 0.38340 | 5776 ft | 138 kts | 65° |
| 2026-04-25 15:55 | 45.71847 | 0.39614 | 6046 ft | 144 kts | 65° |
| 2026-04-25 15:55 | 45.72276 | 0.40934 | 6315 ft | 149 kts | 66° |
| 2026-04-25 15:56 | 45.72717 | 0.42297 | 6583 ft | 153 kts | 66° |
| 2026-04-25 15:56 | 45.73159 | 0.43669 | 6912 ft | 151 kts | 66° |
| 2026-04-25 15:56 | 45.73602 | 0.45039 | 7220 ft | 151 kts | 65° |
| 2026-04-25 15:56 | 45.74042 | 0.46405 | 7534 ft | 151 kts | 66° |
| 2026-04-25 15:57 | 45.74482 | 0.47772 | 7851 ft | 151 kts | 65° |
| 2026-04-25 15:57 | 45.74919 | 0.49132 | 8197 ft | 150 kts | 65° |
| 2026-04-25 15:57 | 45.75353 | 0.50480 | 8543 ft | 149 kts | 65° |
| 2026-04-25 15:57 | 45.75784 | 0.51821 | 8892 ft | 148 kts | 65° |
| 2026-04-25 15:58 | 45.76213 | 0.53157 | 9242 ft | 148 kts | 65° |
| 2026-04-25 15:58 | 45.76644 | 0.54499 | 9585 ft | 149 kts | 64° |
| 2026-04-25 15:58 | 45.77079 | 0.55850 | 9924 ft | 150 kts | 64° |
| 2026-04-25 15:58 | 45.77517 | 0.57216 | 10240 ft | 151 kts | 64° |
| 2026-04-25 15:59 | 45.77958 | 0.58594 | 10549 ft | 153 kts | 64° |
| 2026-04-25 15:59 | 45.78407 | 0.59997 | 10845 ft | 157 kts | 64° |
| 2026-04-25 15:59 | 45.78864 | 0.61422 | 11138 ft | 158 kts | 65° |
| 2026-04-25 15:59 | 45.79325 | 0.62864 | 11437 ft | 160 kts | 64° |
| 2026-04-25 16:00 | 45.79791 | 0.64317 | 11735 ft | 161 kts | 64° |
| 2026-04-25 16:00 | 45.79949 | 0.64813 | 11835 ft | 162 kts | 64° |
| 2026-04-25 16:00 | 45.80732 | 0.67265 | 12338 ft | 164 kts | 64° |
| 2026-04-25 16:00 | 45.81207 | 0.68753 | 12646 ft | 165 kts | 64° |
| 2026-04-25 16:01 | 45.81686 | 0.70252 | 12955 ft | 166 kts | 64° |
| 2026-04-25 16:01 | 45.82167 | 0.71761 | 13268 ft | 167 kts | 64° |
| 2026-04-25 16:01 | 45.82645 | 0.73260 | 13584 ft | 168 kts | 64° |
| 2026-04-25 16:01 | 45.83130 | 0.74784 | 13897 ft | 168 kts | 64° |
| 2026-04-25 16:02 | 45.83617 | 0.76314 | 14179 ft | 169 kts | 64° |
| 2026-04-25 16:02 | 45.84115 | 0.77874 | 14465 ft | 170 kts | 64° |
| 2026-04-25 16:02 | 45.84606 | 0.79418 | 14751 ft | 171 kts | 65° |
| 2026-04-25 16:02 | 45.85099 | 0.80973 | 15033 ft | 171 kts | 65° |
| 2026-04-25 16:03 | 45.85595 | 0.82531 | 15324 ft | 172 kts | 65° |
| 2026-04-25 16:03 | 45.86085 | 0.84078 | 15614 ft | 173 kts | 65° |
| 2026-04-25 16:03 | 45.86585 | 0.85655 | 15907 ft | 174 kts | 65° |
| 2026-04-25 16:03 | 45.87089 | 0.87240 | 16211 ft | 175 kts | 65° |
| 2026-04-25 16:04 | 45.87592 | 0.88830 | 16517 ft | 175 kts | 65° |
| 2026-04-25 16:04 | 45.88099 | 0.90431 | 16822 ft | 176 kts | 65° |
| 2026-04-25 16:04 | 45.88605 | 0.92032 | 17127 ft | 176 kts | 65° |
| 2026-04-25 16:04 | 45.89114 | 0.93639 | 17443 ft | 177 kts | 65° |
| 2026-04-25 16:05 | 45.89624 | 0.95252 | 17755 ft | 178 kts | 65° |
| 2026-04-25 16:05 | 45.90135 | 0.96870 | 18073 ft | 178 kts | 65° |
| 2026-04-25 16:05 | 45.91160 | 1.00118 | 18670 ft | 179 kts | 65° |
| 2026-04-25 16:06 | 45.91677 | 1.01757 | 18915 ft | 182 kts | 65° |
| 2026-04-25 16:06 | 45.92202 | 1.03424 | 19160 ft | 184 kts | 65° |
| 2026-04-25 16:06 | 45.92732 | 1.05111 | 19396 ft | 187 kts | 65° |
| 2026-04-25 16:06 | 45.93270 | 1.06821 | 19641 ft | 189 kts | 65° |
| 2026-04-25 16:07 | 45.93812 | 1.08545 | 19883 ft | 191 kts | 65° |
| 2026-04-25 16:07 | 45.93997 | 1.09134 | 19971 ft | 191 kts | 65° |
| 2026-04-25 16:07 | 45.94913 | 1.12047 | 20381 ft | 194 kts | 65° |
| 2026-04-25 16:07 | 45.95469 | 1.13818 | 20628 ft | 195 kts | 65° |
| 2026-04-25 16:08 | 45.96027 | 1.15599 | 20880 ft | 196 kts | 65° |
| 2026-04-25 16:08 | 45.96591 | 1.17401 | 21013 ft | 203 kts | 65° |
| 2026-04-25 16:08 | 45.97189 | 1.19309 | 21030 ft | 215 kts | 65° |
| 2026-04-25 16:08 | 45.97818 | 1.21320 | 21027 ft | 225 kts | 65° |
| 2026-04-25 16:09 | 45.98459 | 1.23374 | 21235 ft | 222 kts | 65° |
| 2026-04-25 16:09 | 45.99074 | 1.25340 | 21538 ft | 215 kts | 65° |
| 2026-04-25 16:09 | 45.99679 | 1.27279 | 21830 ft | 210 kts | 65° |
| 2026-04-25 16:09 | 46.00271 | 1.29175 | 22131 ft | 205 kts | 65° |
| 2026-04-25 16:10 | 46.00850 | 1.31031 | 22430 ft | 201 kts | 65° |
| 2026-04-25 16:10 | 46.01418 | 1.32853 | 22734 ft | 198 kts | 65° |
| 2026-04-25 16:10 | 46.01974 | 1.34643 | 23034 ft | 194 kts | 65° |
| 2026-04-25 16:10 | 46.02518 | 1.36392 | 23344 ft | 190 kts | 65° |
| 2026-04-25 16:11 | 46.03052 | 1.38109 | 23652 ft | 186 kts | 65° |
| 2026-04-25 16:11 | 46.03575 | 1.39790 | 23918 ft | 182 kts | 65° |
| 2026-04-25 16:11 | 46.04085 | 1.41435 | 24177 ft | 178 kts | 65° |
| 2026-04-25 16:11 | 46.04583 | 1.43039 | 24437 ft | 173 kts | 64° |
| 2026-04-25 16:12 | 46.05065 | 1.44596 | 24698 ft | 168 kts | 64° |
| 2026-04-25 16:12 | 46.05542 | 1.46129 | 24901 ft | 169 kts | 64° |
| 2026-04-25 16:12 | 46.05863 | 1.47164 | 25000 ft | 173 kts | 64° |
| 2026-04-25 16:12 | 46.06196 | 1.48242 | 25007 ft | 183 kts | 64° |
| 2026-04-25 16:13 | 46.06920 | 1.50586 | 25019 ft | 200 kts | 64° |
| 2026-04-25 16:13 | 46.07500 | 1.52464 | 25018 ft | 210 kts | 65° |
| 2026-04-25 16:13 | 46.08307 | 1.55077 | 25015 ft | 220 kts | 65° |
| 2026-04-25 16:13 | 46.08731 | 1.56453 | 25011 ft | 224 kts | 65° |
| 2026-04-25 16:14 | 46.09373 | 1.58535 | 25009 ft | 230 kts | 65° |
| 2026-04-25 16:14 | 46.10025 | 1.60654 | 25010 ft | 233 kts | 65° |
| 2026-04-25 16:14 | 46.10688 | 1.62805 | 25009 ft | 236 kts | 65° |
| 2026-04-25 16:14 | 46.11357 | 1.64981 | 25003 ft | 238 kts | 65° |
| 2026-04-25 16:15 | 46.12027 | 1.67155 | 25008 ft | 237 kts | 65° |
| 2026-04-25 16:15 | 46.12701 | 1.69346 | 25006 ft | 241 kts | 65° |
| 2026-04-25 16:15 | 46.13374 | 1.71544 | 25010 ft | 244 kts | 65° |
| 2026-04-25 16:15 | 46.14063 | 1.73792 | 25008 ft | 245 kts | 65° |
| 2026-04-25 16:16 | 46.14754 | 1.76050 | 25005 ft | 247 kts | 65° |
| 2026-04-25 16:16 | 46.15451 | 1.78327 | 25007 ft | 248 kts | 65° |
| 2026-04-25 16:16 | 46.16150 | 1.80613 | 25005 ft | 250 kts | 65° |
| 2026-04-25 16:16 | 46.16855 | 1.82924 | 25003 ft | 253 kts | 65° |
| 2026-04-25 16:17 | 46.17568 | 1.85264 | 25009 ft | 256 kts | 65° |
| 2026-04-25 16:17 | 46.18289 | 1.87627 | 25007 ft | 258 kts | 65° |
| 2026-04-25 16:17 | 46.19017 | 1.90014 | 25008 ft | 260 kts | 65° |
| 2026-04-25 16:17 | 46.19746 | 1.92414 | 25008 ft | 261 kts | 65° |
| 2026-04-25 16:18 | 46.20476 | 1.94820 | 25002 ft | 263 kts | 65° |
| 2026-04-25 16:18 | 46.20963 | 1.96422 | 25005 ft | 263 kts | 65° |
| 2026-04-25 16:18 | 46.21948 | 1.99663 | 25003 ft | 264 kts | 64° |
| 2026-04-25 16:18 | 46.22685 | 2.02095 | 25003 ft | 265 kts | 65° |
| 2026-04-25 16:19 | 46.23423 | 2.04534 | 25006 ft | 265 kts | 65° |
| 2026-04-25 16:19 | 46.24161 | 2.06973 | 25002 ft | 265 kts | 64° |
| 2026-04-25 16:19 | 46.24899 | 2.09415 | 25003 ft | 265 kts | 64° |
| 2026-04-25 16:20 | 46.26365 | 2.14275 | 24999 ft | 266 kts | 64° |
| 2026-04-25 16:20 | 46.27103 | 2.16728 | 25002 ft | 266 kts | 64° |
| 2026-04-25 16:20 | 46.28582 | 2.21637 | 24999 ft | 266 kts | 64° |
| 2026-04-25 16:21 | 46.29321 | 2.24099 | 25008 ft | 266 kts | 64° |
| 2026-04-25 16:21 | 46.30060 | 2.26560 | 25002 ft | 266 kts | 64° |
| 2026-04-25 16:21 | 46.30796 | 2.29016 | 24997 ft | 266 kts | 64° |
| 2026-04-25 16:21 | 46.31533 | 2.31478 | 24999 ft | 266 kts | 64° |
| 2026-04-25 16:22 | 46.32270 | 2.33937 | 24998 ft | 267 kts | 64° |
| 2026-04-25 16:22 | 46.33007 | 2.36402 | 25001 ft | 267 kts | 64° |
| 2026-04-25 16:22 | 46.33745 | 2.38873 | 25001 ft | 268 kts | 64° |
| 2026-04-25 16:22 | 46.34483 | 2.41347 | 24996 ft | 268 kts | 64° |
| 2026-04-25 16:23 | 46.35220 | 2.43822 | 25000 ft | 268 kts | 64° |
| 2026-04-25 16:23 | 46.35958 | 2.46298 | 24996 ft | 268 kts | 64° |
| 2026-04-25 16:23 | 46.36695 | 2.48777 | 24996 ft | 268 kts | 64° |
| 2026-04-25 16:23 | 46.37397 | 2.51282 | 24995 ft | 269 kts | 71° |
| 2026-04-25 16:24 | 46.37773 | 2.53947 | 24997 ft | 271 kts | 81° |
| 2026-04-25 16:24 | 46.38006 | 2.56652 | 24996 ft | 271 kts | 81° |
| 2026-04-25 16:24 | 46.38310 | 2.59348 | 24997 ft | 271 kts | 78° |
| 2026-04-25 16:24 | 46.38663 | 2.62024 | 25000 ft | 271 kts | 77° |
| 2026-04-25 16:25 | 46.39002 | 2.64714 | 24996 ft | 272 kts | 78° |
| 2026-04-25 16:25 | 46.39216 | 2.66497 | 24998 ft | 272 kts | 78° |
| 2026-04-25 16:25 | 46.39647 | 2.70106 | 24996 ft | 272 kts | 78° |
| 2026-04-25 16:25 | 46.39976 | 2.72805 | 24999 ft | 272 kts | 78° |
| 2026-04-25 16:26 | 46.40303 | 2.75502 | 24994 ft | 272 kts | 78° |
| 2026-04-25 16:26 | 46.40629 | 2.78205 | 24992 ft | 272 kts | 78° |
| 2026-04-25 16:26 | 46.40949 | 2.80868 | 24992 ft | 272 kts | 78° |
| 2026-04-25 16:26 | 46.41274 | 2.83572 | 24997 ft | 272 kts | 79° |
| 2026-04-25 16:27 | 46.41598 | 2.86274 | 24992 ft | 272 kts | 79° |
| 2026-04-25 16:27 | 46.41922 | 2.88977 | 24992 ft | 272 kts | 79° |
| 2026-04-25 16:27 | 46.42245 | 2.91680 | 24995 ft | 273 kts | 79° |
| 2026-04-25 16:27 | 46.42568 | 2.94389 | 24993 ft | 273 kts | 79° |
| 2026-04-25 16:28 | 46.42890 | 2.97094 | 24999 ft | 272 kts | 79° |
| 2026-04-25 16:28 | 46.43210 | 2.99804 | 24993 ft | 273 kts | 79° |
| 2026-04-25 16:28 | 46.43532 | 3.02511 | 24995 ft | 273 kts | 79° |
| 2026-04-25 16:28 | 46.43853 | 3.05225 | 24995 ft | 272 kts | 79° |
| 2026-04-25 16:29 | 46.44173 | 3.07931 | 24992 ft | 272 kts | 79° |
| 2026-04-25 16:29 | 46.44491 | 3.10639 | 24993 ft | 272 kts | 80° |
| 2026-04-25 16:29 | 46.44808 | 3.13346 | 24995 ft | 272 kts | 80° |
| 2026-04-25 16:29 | 46.45127 | 3.16048 | 24993 ft | 272 kts | 80° |
| 2026-04-25 16:30 | 46.45442 | 3.18748 | 24991 ft | 272 kts | 80° |
| 2026-04-25 16:30 | 46.45751 | 3.21414 | 24992 ft | 271 kts | 80° |
| 2026-04-25 16:30 | 46.46066 | 3.24116 | 24991 ft | 271 kts | 80° |
| 2026-04-25 16:30 | 46.46381 | 3.26813 | 24992 ft | 272 kts | 81° |
| 2026-04-25 16:31 | 46.46693 | 3.29513 | 24992 ft | 271 kts | 81° |
| 2026-04-25 16:31 | 46.47004 | 3.32216 | 24991 ft | 271 kts | 81° |
| 2026-04-25 16:31 | 46.47316 | 3.34915 | 24990 ft | 271 kts | 81° |
| 2026-04-25 16:31 | 46.47628 | 3.37612 | 24992 ft | 271 kts | 81° |
| 2026-04-25 16:32 | 46.47939 | 3.40316 | 24993 ft | 272 kts | 81° |
| 2026-04-25 16:32 | 46.48248 | 3.43018 | 24991 ft | 271 kts | 81° |
| 2026-04-25 16:32 | 46.48557 | 3.45720 | 24989 ft | 271 kts | 82° |
| 2026-04-25 16:32 | 46.48866 | 3.48422 | 24990 ft | 271 kts | 82° |
| 2026-04-25 16:33 | 46.49174 | 3.51121 | 24989 ft | 271 kts | 82° |
| 2026-04-25 16:33 | 46.49482 | 3.53826 | 24991 ft | 271 kts | 82° |
| 2026-04-25 16:33 | 46.49787 | 3.56524 | 24988 ft | 271 kts | 82° |
| 2026-04-25 16:33 | 46.50093 | 3.59226 | 24988 ft | 271 kts | 82° |
| 2026-04-25 16:34 | 46.50399 | 3.61930 | 24990 ft | 271 kts | 83° |
| 2026-04-25 16:34 | 46.50703 | 3.64630 | 24987 ft | 271 kts | 83° |
| 2026-04-25 16:34 | 46.51006 | 3.67328 | 24988 ft | 271 kts | 83° |
| 2026-04-25 16:34 | 46.51309 | 3.70026 | 24992 ft | 271 kts | 83° |
| 2026-04-25 16:35 | 46.51612 | 3.72724 | 24990 ft | 271 kts | 83° |
| 2026-04-25 16:35 | 46.51910 | 3.75395 | 24992 ft | 271 kts | 83° |
| 2026-04-25 16:35 | 46.52208 | 3.78069 | 25101 ft | 266 kts | 83° |
| 2026-04-25 16:35 | 46.52503 | 3.80726 | 25108 ft | 267 kts | 83° |
| 2026-04-25 16:36 | 46.52799 | 3.83393 | 25108 ft | 268 kts | 84° |
| 2026-04-25 16:36 | 46.52899 | 3.84294 | 25106 ft | 268 kts | 84° |
| 2026-04-25 16:36 | 46.53392 | 3.88750 | 25112 ft | 269 kts | 84° |
| 2026-04-25 16:36 | 46.53687 | 3.91434 | 25111 ft | 269 kts | 84° |
| 2026-04-25 16:37 | 46.53984 | 3.94122 | 25111 ft | 269 kts | 84° |
| 2026-04-25 16:37 | 46.54279 | 3.96809 | 25108 ft | 269 kts | 84° |
| 2026-04-25 16:37 | 46.54573 | 3.99492 | 25110 ft | 269 kts | 84° |
| 2026-04-25 16:37 | 46.54866 | 4.02179 | 25111 ft | 269 kts | 85° |
| 2026-04-25 16:38 | 46.55158 | 4.04865 | 25109 ft | 269 kts | 85° |
| 2026-04-25 16:38 | 46.55451 | 4.07555 | 25108 ft | 269 kts | 85° |
| 2026-04-25 16:38 | 46.55742 | 4.10239 | 25107 ft | 269 kts | 85° |
| 2026-04-25 16:38 | 46.56033 | 4.12920 | 25111 ft | 269 kts | 85° |
| 2026-04-25 16:39 | 46.56323 | 4.15603 | 25106 ft | 269 kts | 85° |
| 2026-04-25 16:39 | 46.56611 | 4.18282 | 25109 ft | 268 kts | 85° |
| 2026-04-25 16:39 | 46.56896 | 4.20926 | 25105 ft | 268 kts | 85° |
| 2026-04-25 16:39 | 46.57184 | 4.23601 | 25106 ft | 268 kts | 85° |
| 2026-04-25 16:40 | 46.57471 | 4.26285 | 25105 ft | 268 kts | 85° |
| 2026-04-25 16:40 | 46.57756 | 4.28953 | 25103 ft | 267 kts | 85° |
| 2026-04-25 16:40 | 46.58040 | 4.31625 | 25102 ft | 267 kts | 85° |
| 2026-04-25 16:40 | 46.58323 | 4.34285 | 25104 ft | 267 kts | 86° |
| 2026-04-25 16:41 | 46.58606 | 4.36954 | 25106 ft | 267 kts | 85° |
| 2026-04-25 16:41 | 46.58793 | 4.38722 | 25104 ft | 267 kts | 85° |
| 2026-04-25 16:41 | 46.59452 | 4.44964 | 25098 ft | 267 kts | 86° |
| 2026-04-25 16:42 | 46.59733 | 4.47635 | 25100 ft | 267 kts | 86° |
| 2026-04-25 16:42 | 46.60012 | 4.50296 | 25103 ft | 266 kts | 86° |
| 2026-04-25 16:42 | 46.60286 | 4.52930 | 25102 ft | 266 kts | 86° |
| 2026-04-25 16:42 | 46.60565 | 4.55590 | 25100 ft | 266 kts | 86° |
| 2026-04-25 16:43 | 46.60844 | 4.58255 | 25101 ft | 266 kts | 86° |
| 2026-04-25 16:43 | 46.61119 | 4.60921 | 25100 ft | 266 kts | 86° |
| 2026-04-25 16:43 | 46.61395 | 4.63579 | 25099 ft | 266 kts | 86° |
| 2026-04-25 16:43 | 46.61670 | 4.66241 | 25100 ft | 265 kts | 86° |
| 2026-04-25 16:44 | 46.61945 | 4.68893 | 25098 ft | 265 kts | 86° |
| 2026-04-25 16:44 | 46.62217 | 4.71543 | 25098 ft | 265 kts | 86° |
| 2026-04-25 16:44 | 46.62489 | 4.74194 | 25098 ft | 265 kts | 86° |
| 2026-04-25 16:44 | 46.62760 | 4.76842 | 25101 ft | 265 kts | 86° |
| 2026-04-25 16:45 | 46.63031 | 4.79490 | 25099 ft | 264 kts | 86° |
| 2026-04-25 16:45 | 46.63298 | 4.82105 | 25098 ft | 264 kts | 86° |
| 2026-04-25 16:45 | 46.63567 | 4.84748 | 25096 ft | 264 kts | 86° |
| 2026-04-25 16:45 | 46.63834 | 4.87385 | 25095 ft | 264 kts | 86° |
| 2026-04-25 16:46 | 46.64101 | 4.90027 | 25095 ft | 263 kts | 86° |
| 2026-04-25 16:46 | 46.64368 | 4.92665 | 25095 ft | 263 kts | 86° |
| 2026-04-25 16:46 | 46.64634 | 4.95300 | 25099 ft | 263 kts | 86° |
| 2026-04-25 16:46 | 46.64724 | 4.96188 | 25097 ft | 263 kts | 86° |
| 2026-04-25 16:47 | 46.65162 | 5.00559 | 25101 ft | 263 kts | 86° |
| 2026-04-25 16:47 | 46.65424 | 5.03189 | 25099 ft | 262 kts | 86° |
| 2026-04-25 16:47 | 46.65687 | 5.05816 | 25098 ft | 262 kts | 86° |
| 2026-04-25 16:47 | 46.65949 | 5.08441 | 25094 ft | 262 kts | 86° |
| 2026-04-25 16:48 | 46.66209 | 5.11067 | 25094 ft | 262 kts | 86° |
| 2026-04-25 16:48 | 46.66470 | 5.13697 | 25096 ft | 262 kts | 86° |
| 2026-04-25 16:48 | 46.66731 | 5.16327 | 25093 ft | 262 kts | 86° |
| 2026-04-25 16:48 | 46.67059 | 5.18939 | 25101 ft | 264 kts | 79° |
| 2026-04-25 16:49 | 46.67546 | 5.21514 | 25100 ft | 264 kts | 78° |
| 2026-04-25 16:49 | 46.68027 | 5.24058 | 25097 ft | 264 kts | 79° |
| 2026-04-25 16:49 | 46.68503 | 5.26642 | 25098 ft | 263 kts | 79° |
| 2026-04-25 16:49 | 46.68975 | 5.29217 | 25099 ft | 263 kts | 79° |
| 2026-04-25 16:50 | 46.69450 | 5.31795 | 25100 ft | 263 kts | 79° |
| 2026-04-25 16:50 | 46.69926 | 5.34373 | 25100 ft | 263 kts | 79° |
| 2026-04-25 16:50 | 46.70399 | 5.36946 | 25099 ft | 263 kts | 79° |
| 2026-04-25 16:50 | 46.70871 | 5.39524 | 25100 ft | 263 kts | 79° |
| 2026-04-25 16:51 | 46.71342 | 5.42093 | 25104 ft | 263 kts | 79° |
| 2026-04-25 16:51 | 46.71813 | 5.44664 | 25101 ft | 262 kts | 79° |
| 2026-04-25 16:51 | 46.72283 | 5.47235 | 25101 ft | 262 kts | 79° |
| 2026-04-25 16:51 | 46.72442 | 5.48101 | 25103 ft | 262 kts | 79° |
| 2026-04-25 16:52 | 46.73220 | 5.52372 | 25103 ft | 262 kts | 79° |
| 2026-04-25 16:52 | 46.73687 | 5.54938 | 25107 ft | 262 kts | 79° |
| 2026-04-25 16:52 | 46.74154 | 5.57506 | 25105 ft | 262 kts | 79° |
| 2026-04-25 16:52 | 46.74620 | 5.60074 | 25106 ft | 262 kts | 79° |
| 2026-04-25 16:53 | 46.75543 | 5.65174 | 25104 ft | 262 kts | 79° |
| 2026-04-25 16:53 | 46.76008 | 5.67742 | 25105 ft | 262 kts | 79° |
| 2026-04-25 16:53 | 46.76471 | 5.70308 | 25106 ft | 262 kts | 79° |
| 2026-04-25 16:54 | 46.76933 | 5.72868 | 25105 ft | 261 kts | 79° |
| 2026-04-25 16:54 | 46.77395 | 5.75435 | 25104 ft | 261 kts | 79° |
| 2026-04-25 16:54 | 46.77855 | 5.77996 | 25104 ft | 261 kts | 79° |
| 2026-04-25 16:54 | 46.78314 | 5.80553 | 25108 ft | 261 kts | 79° |
| 2026-04-25 16:55 | 46.78772 | 5.83110 | 25110 ft | 260 kts | 79° |
| 2026-04-25 16:55 | 46.79231 | 5.85671 | 25107 ft | 260 kts | 79° |
| 2026-04-25 16:55 | 46.79688 | 5.88228 | 25107 ft | 260 kts | 79° |
| 2026-04-25 16:55 | 46.80144 | 5.90782 | 25108 ft | 260 kts | 79° |
| 2026-04-25 16:56 | 46.80599 | 5.93338 | 25109 ft | 260 kts | 79° |
| 2026-04-25 16:56 | 46.81053 | 5.95891 | 25106 ft | 259 kts | 79° |
| 2026-04-25 16:56 | 46.81506 | 5.98438 | 25106 ft | 259 kts | 79° |
| 2026-04-25 16:56 | 46.81957 | 6.00978 | 25110 ft | 259 kts | 79° |
| 2026-04-25 16:57 | 46.82402 | 6.03488 | 25108 ft | 259 kts | 79° |
| 2026-04-25 16:57 | 46.82555 | 6.04349 | 25107 ft | 259 kts | 79° |
| 2026-04-25 16:57 | 46.83303 | 6.08587 | 25108 ft | 259 kts | 79° |
| 2026-04-25 16:57 | 46.83752 | 6.11132 | 25107 ft | 259 kts | 79° |
| 2026-04-25 16:58 | 46.84201 | 6.13679 | 25109 ft | 259 kts | 79° |
| 2026-04-25 16:58 | 46.84652 | 6.16235 | 25107 ft | 260 kts | 79° |
| 2026-04-25 16:58 | 46.85100 | 6.18789 | 25106 ft | 259 kts | 79° |
| 2026-04-25 16:58 | 46.85396 | 6.20477 | 25102 ft | 259 kts | 79° |
| 2026-04-25 16:59 | 46.85995 | 6.23891 | 25104 ft | 259 kts | 79° |
| 2026-04-25 16:59 | 46.86291 | 6.25582 | 25105 ft | 259 kts | 79° |
| 2026-04-25 16:59 | 46.86736 | 6.28131 | 25101 ft | 258 kts | 79° |
| 2026-04-25 16:59 | 46.87179 | 6.30671 | 25102 ft | 258 kts | 79° |
| 2026-04-25 17:00 | 46.87622 | 6.33207 | 25108 ft | 257 kts | 79° |
| 2026-04-25 17:00 | 46.88062 | 6.35740 | 25104 ft | 257 kts | 79° |
| 2026-04-25 17:00 | 46.88504 | 6.38281 | 25109 ft | 257 kts | 79° |
| 2026-04-25 17:00 | 46.88945 | 6.40817 | 25113 ft | 258 kts | 79° |
| 2026-04-25 17:01 | 46.89384 | 6.43358 | 25112 ft | 258 kts | 79° |
| 2026-04-25 17:01 | 46.89824 | 6.45902 | 25121 ft | 259 kts | 79° |
| 2026-04-25 17:01 | 46.90266 | 6.48460 | 25121 ft | 259 kts | 79° |
| 2026-04-25 17:01 | 46.90705 | 6.51002 | 25123 ft | 258 kts | 79° |
| 2026-04-25 17:02 | 46.91145 | 6.53552 | 25128 ft | 259 kts | 79° |
| 2026-04-25 17:02 | 46.91585 | 6.56109 | 25134 ft | 259 kts | 79° |
| 2026-04-25 17:02 | 46.92023 | 6.58667 | 25137 ft | 259 kts | 79° |
| 2026-04-25 17:02 | 46.92314 | 6.60365 | 25140 ft | 260 kts | 79° |
| 2026-04-25 17:03 | 46.92900 | 6.63780 | 25146 ft | 258 kts | 79° |
| 2026-04-25 17:03 | 46.93331 | 6.66303 | 25147 ft | 259 kts | 79° |
| 2026-04-25 17:03 | 46.93768 | 6.68853 | 25152 ft | 258 kts | 79° |
| 2026-04-25 17:03 | 46.94208 | 6.71437 | 25148 ft | 258 kts | 79° |
| 2026-04-25 17:04 | 46.94636 | 6.73954 | 25162 ft | 258 kts | 79° |
| 2026-04-25 17:04 | 46.95069 | 6.76500 | 25156 ft | 258 kts | 79° |
| 2026-04-25 17:04 | 46.95501 | 6.79041 | 25158 ft | 257 kts | 79° |
| 2026-04-25 17:04 | 46.95931 | 6.81576 | 25164 ft | 256 kts | 79° |
| 2026-04-25 17:05 | 46.96359 | 6.84109 | 25164 ft | 256 kts | 79° |
| 2026-04-25 17:05 | 46.97216 | 6.89180 | 25161 ft | 257 kts | 78° |
| 2026-04-25 17:05 | 46.97643 | 6.91711 | 25089 ft | 256 kts | 78° |
| 2026-04-25 17:06 | 46.98066 | 6.94223 | 25087 ft | 256 kts | 78° |
| 2026-04-25 17:06 | 46.98491 | 6.96756 | 25094 ft | 256 kts | 78° |
| 2026-04-25 17:06 | 46.98915 | 6.99284 | 25086 ft | 256 kts | 78° |
| 2026-04-25 17:06 | 46.99339 | 7.01811 | 25092 ft | 255 kts | 78° |
| 2026-04-25 17:07 | 46.99762 | 7.04342 | 25094 ft | 255 kts | 78° |
| 2026-04-25 17:07 | 47.00184 | 7.06868 | 25090 ft | 256 kts | 78° |
| 2026-04-25 17:07 | 47.00606 | 7.09397 | 25091 ft | 256 kts | 78° |
| 2026-04-25 17:07 | 47.01028 | 7.11931 | 25090 ft | 256 kts | 78° |
| 2026-04-25 17:08 | 47.01450 | 7.14468 | 25092 ft | 257 kts | 78° |
| 2026-04-25 17:08 | 47.01873 | 7.17012 | 25093 ft | 256 kts | 78° |
| 2026-04-25 17:08 | 47.02294 | 7.19549 | 25092 ft | 256 kts | 78° |
| 2026-04-25 17:08 | 47.02713 | 7.22085 | 25093 ft | 256 kts | 78° |
| 2026-04-25 17:09 | 47.03129 | 7.24597 | 25097 ft | 256 kts | 78° |
| 2026-04-25 17:09 | 47.03548 | 7.27137 | 25097 ft | 256 kts | 78° |
| 2026-04-25 17:09 | 47.03967 | 7.29674 | 25094 ft | 256 kts | 78° |
| 2026-04-25 17:09 | 47.04385 | 7.32216 | 25094 ft | 257 kts | 78° |
| 2026-04-25 17:10 | 47.04802 | 7.34757 | 25096 ft | 256 kts | 77° |
| 2026-04-25 17:10 | 47.05220 | 7.37301 | 25097 ft | 257 kts | 77° |
| 2026-04-25 17:10 | 47.05637 | 7.39848 | 25097 ft | 256 kts | 77° |
| 2026-04-25 17:10 | 47.06053 | 7.42386 | 25101 ft | 256 kts | 77° |
| 2026-04-25 17:11 | 47.06468 | 7.44928 | 25097 ft | 256 kts | 77° |
| 2026-04-25 17:11 | 47.06883 | 7.47477 | 25099 ft | 256 kts | 77° |
| 2026-04-25 17:11 | 47.07297 | 7.50017 | 25098 ft | 256 kts | 77° |
| 2026-04-25 17:11 | 47.07711 | 7.52561 | 25097 ft | 256 kts | 77° |
| 2026-04-25 17:12 | 47.08124 | 7.55102 | 25101 ft | 256 kts | 77° |
| 2026-04-25 17:12 | 47.08535 | 7.57637 | 25099 ft | 256 kts | 76° |
| 2026-04-25 17:12 | 47.08947 | 7.60182 | 25099 ft | 256 kts | 76° |
| 2026-04-25 17:12 | 47.09357 | 7.62722 | 25097 ft | 256 kts | 76° |
| 2026-04-25 17:13 | 47.09767 | 7.65262 | 25093 ft | 256 kts | 76° |
| 2026-04-25 17:13 | 47.10039 | 7.66945 | 25093 ft | 256 kts | 76° |
| 2026-04-25 17:13 | 47.10587 | 7.70347 | 25095 ft | 256 kts | 76° |
| 2026-04-25 17:13 | 47.10994 | 7.72891 | 25091 ft | 256 kts | 76° |
| 2026-04-25 17:14 | 47.11403 | 7.75440 | 25093 ft | 256 kts | 76° |
| 2026-04-25 17:14 | 47.11812 | 7.77987 | 25091 ft | 256 kts | 76° |
| 2026-04-25 17:14 | 47.12214 | 7.80502 | 25092 ft | 256 kts | 76° |
| 2026-04-25 17:14 | 47.12620 | 7.83047 | 25088 ft | 256 kts | 76° |
| 2026-04-25 17:15 | 47.13027 | 7.85598 | 25086 ft | 256 kts | 75° |
| 2026-04-25 17:15 | 47.13433 | 7.88147 | 25087 ft | 256 kts | 75° |
| 2026-04-25 17:15 | 47.13837 | 7.90689 | 25090 ft | 256 kts | 76° |
| 2026-04-25 17:15 | 47.14241 | 7.93233 | 25093 ft | 256 kts | 76° |
| 2026-04-25 17:16 | 47.14644 | 7.95784 | 25092 ft | 256 kts | 75° |
| 2026-04-25 17:16 | 47.15049 | 7.98337 | 25092 ft | 257 kts | 75° |
| 2026-04-25 17:16 | 47.15453 | 8.00892 | 25098 ft | 257 kts | 75° |
| 2026-04-25 17:16 | 47.15857 | 8.03454 | 25098 ft | 257 kts | 75° |
| 2026-04-25 17:17 | 47.16259 | 8.06011 | 25099 ft | 257 kts | 75° |
| 2026-04-25 17:17 | 47.16650 | 8.08506 | 25101 ft | 257 kts | 75° |
| 2026-04-25 17:17 | 47.17053 | 8.11069 | 25098 ft | 258 kts | 75° |
| 2026-04-25 17:17 | 47.17456 | 8.13634 | 25099 ft | 257 kts | 75° |
| 2026-04-25 17:18 | 47.17852 | 8.16161 | 25098 ft | 257 kts | 75° |
| 2026-04-25 17:18 | 47.18251 | 8.18720 | 25100 ft | 257 kts | 75° |
| 2026-04-25 17:18 | 47.18652 | 8.21295 | 24977 ft | 262 kts | 75° |
| 2026-04-25 17:18 | 47.19067 | 8.23950 | 24746 ft | 270 kts | 75° |
| 2026-04-25 17:19 | 47.19490 | 8.26674 | 24523 ft | 276 kts | 75° |
| 2026-04-25 17:19 | 47.19920 | 8.29451 | 24299 ft | 281 kts | 75° |
| 2026-04-25 17:19 | 47.20356 | 8.32267 | 24079 ft | 285 kts | 75° |
| 2026-04-25 17:19 | 47.20797 | 8.35122 | 23864 ft | 288 kts | 75° |
| 2026-04-25 17:20 | 47.21249 | 8.38045 | 23629 ft | 290 kts | 75° |
| 2026-04-25 17:20 | 47.21690 | 8.40916 | 23370 ft | 292 kts | 75° |
| 2026-04-25 17:20 | 47.22140 | 8.43841 | 23104 ft | 294 kts | 75° |
| 2026-04-25 17:20 | 47.22592 | 8.46784 | 22845 ft | 296 kts | 75° |
| 2026-04-25 17:21 | 47.23045 | 8.49738 | 22590 ft | 297 kts | 75° |
| 2026-04-25 17:21 | 47.23499 | 8.52704 | 22321 ft | 297 kts | 75° |
| 2026-04-25 17:21 | 47.23952 | 8.55677 | 22063 ft | 298 kts | 75° |
| 2026-04-25 17:21 | 47.24404 | 8.58648 | 21811 ft | 298 kts | 75° |
| 2026-04-25 17:22 | 47.24859 | 8.61628 | 21553 ft | 298 kts | 75° |
| 2026-04-25 17:22 | 47.25159 | 8.63596 | 21387 ft | 298 kts | 75° |
| 2026-04-25 17:22 | 47.25762 | 8.67582 | 21049 ft | 296 kts | 75° |
| 2026-04-25 17:22 | 47.26206 | 8.70529 | 20806 ft | 295 kts | 75° |
| 2026-04-25 17:23 | 47.26653 | 8.73478 | 20557 ft | 294 kts | 75° |
| 2026-04-25 17:23 | 47.27096 | 8.76414 | 20310 ft | 293 kts | 75° |
| 2026-04-25 17:23 | 47.27536 | 8.79344 | 20065 ft | 292 kts | 75° |
| 2026-04-25 17:23 | 47.27974 | 8.82254 | 19826 ft | 291 kts | 75° |
| 2026-04-25 17:24 | 47.28408 | 8.85161 | 19541 ft | 290 kts | 75° |
| 2026-04-25 17:24 | 47.28896 | 8.88034 | 19204 ft | 287 kts | 68° |
| 2026-04-25 17:24 | 47.29807 | 8.90610 | 18872 ft | 282 kts | 53° |
| 2026-04-25 17:24 | 47.30967 | 8.92927 | 18551 ft | 280 kts | 52° |
| 2026-04-25 17:25 | 47.32110 | 8.95225 | 18203 ft | 277 kts | 52° |
| 2026-04-25 17:25 | 47.33224 | 8.97489 | 17840 ft | 275 kts | 52° |
| 2026-04-25 17:25 | 47.34364 | 8.99793 | 17465 ft | 273 kts | 52° |
| 2026-04-25 17:25 | 47.35447 | 9.01978 | 17107 ft | 262 kts | 52° |
| 2026-04-25 17:26 | 47.36507 | 9.04118 | 16740 ft | 254 kts | 52° |
| 2026-04-25 17:26 | 47.37534 | 9.06199 | 16359 ft | 248 kts | 52° |
| 2026-04-25 17:26 | 47.38545 | 9.08247 | 15855 ft | 245 kts | 51° |
| 2026-04-25 17:26 | 47.39548 | 9.10280 | 15365 ft | 245 kts | 52° |
| 2026-04-25 17:27 | 47.40546 | 9.12309 | 14883 ft | 244 kts | 52° |
| 2026-04-25 17:27 | 47.41540 | 9.14329 | 14402 ft | 242 kts | 52° |
| 2026-04-25 17:27 | 47.42332 | 9.16524 | 13930 ft | 244 kts | 69° |
| 2026-04-25 17:27 | 47.42500 | 9.17307 | 13763 ft | 244 kts | 71° |
| 2026-04-25 17:28 | 47.43222 | 9.21319 | 12897 ft | 242 kts | 73° |
| 2026-04-25 17:28 | 47.43428 | 9.22501 | 12646 ft | 241 kts | 73° |
| 2026-04-25 17:28 | 47.43730 | 9.24235 | 12275 ft | 238 kts | 73° |
| 2026-04-25 17:28 | 47.44140 | 9.26572 | 11773 ft | 233 kts | 73° |
| 2026-04-25 17:29 | 47.44546 | 9.28878 | 11271 ft | 232 kts | 73° |
| 2026-04-25 17:29 | 47.44952 | 9.31172 | 10796 ft | 230 kts | 74° |
| 2026-04-25 17:29 | 47.45396 | 9.33438 | 10304 ft | 228 kts | 70° |
| 2026-04-25 17:29 | 47.45875 | 9.35694 | 9705 ft | 233 kts | 72° |
| 2026-04-25 17:30 | 47.46356 | 9.37993 | 9058 ft | 235 kts | 71° |
| 2026-04-25 17:30 | 47.46837 | 9.40294 | 8431 ft | 234 kts | 72° |
| 2026-04-25 17:30 | 47.47318 | 9.42589 | 7807 ft | 232 kts | 72° |
| 2026-04-25 17:30 | 47.47792 | 9.44849 | 7194 ft | 228 kts | 72° |
| 2026-04-25 17:31 | 47.48261 | 9.47069 | 6605 ft | 225 kts | 72° |
| 2026-04-25 17:31 | 47.48726 | 9.49265 | 5969 ft | 222 kts | 71° |
| 2026-04-25 17:31 | 47.49184 | 9.51427 | 5346 ft | 218 kts | 71° |
| 2026-04-25 17:31 | 47.49633 | 9.53552 | 4727 ft | 215 kts | 72° |
| 2026-04-25 17:32 | 47.50072 | 9.55633 | 4096 ft | 209 kts | 72° |
| 2026-04-25 17:32 | 47.50504 | 9.57666 | 3483 ft | 205 kts | 72° |
| 2026-04-25 17:32 | 47.50860 | 9.59629 | 3046 ft | 192 kts | 83° |
| 2026-04-25 17:32 | 47.50613 | 9.61410 | 2819 ft | 172 kts | 122° |
| 2026-04-25 17:33 | 47.49716 | 9.62393 | 2596 ft | 156 kts | 169° |
| 2026-04-25 17:33 | 47.48701 | 9.62117 | 2238 ft | 147 kts | 218° |
| 2026-04-25 17:33 | 47.48198 | 9.61028 | 1985 ft | 122 kts | 250° |
| 2026-04-25 17:33 | 47.48126 | 9.59812 | 1778 ft | 119 kts | 277° |
| 2026-04-25 17:34 | 47.48236 | 9.58617 | 1619 ft | 115 kts | 278° |
| 2026-04-25 17:34 | 47.48355 | 9.57484 | 1429 ft | 109 kts | 278° |
| 2026-04-25 17:34 | 47.48466 | 9.56435 | 1301 ft | 88 kts | 278° |
| 2026-04-25 17:34 | 47.48540 | 9.55751 | 1302 ft | 45 kts | 280° |
| 2026-04-25 17:35 | 47.48575 | 9.55409 | 1301 ft | 17 kts | 279° |
| 2026-04-25 17:35 | 47.48620 | 9.55327 | 1301 ft | 11 kts | 4° |
| 2026-04-25 17:35 | 47.48671 | 9.55240 | 1301 ft | 17 kts | 295° |
| 2026-04-25 17:35 | 47.48724 | 9.55160 | 1300 ft | 9 kts | 27° |
| 2026-04-25 17:36 | 47.48745 | 9.55170 | 1300 ft | 0 kts | 5° |